Airport ID:K63S
Update Time (UTC):29/11/2021 15:24
Wind Speed (Knots):3
Wind Direction (Magnetic):10
Temperature (°C):2
Dew Point (°C):2
Humidity (%):98
Altimeter (inHg):30.13
Density Altitude (Feet):
Visibility (Miles):2 1/2
Clouds (Hundreds of feet):FEW002 BKN018 OVC075
Present Weather:BR
METAR:METAR K63S 291520Z AUTO 04003KT 1 1/4SM BR SCT002 BKN018 OVC075 02/02 A3013 RMK A01

The data displayed is for advisory purposes only and is not to be used for flight planning or operations.